createdAt,value
2018-02-12T00:01:32.901Z,11.40
2018-02-12T00:04:01.285Z,13.25
2018-02-12T00:06:30.431Z,14.98
2018-02-12T00:08:59.050Z,12.35
2018-02-12T00:11:27.666Z,12.43
2018-02-12T00:13:56.340Z,9.85
2018-02-12T00:16:26.446Z,10.75
2018-02-12T00:18:55.684Z,9.35
2018-02-12T00:21:24.274Z,10.75
2018-02-12T00:23:52.650Z,11.10
2018-02-12T00:26:21.008Z,9.38
2018-02-12T00:28:50.158Z,11.25
2018-02-12T00:31:18.523Z,10.15
2018-02-12T00:33:47.091Z,9.85
2018-02-12T00:36:15.459Z,9.10
2018-02-12T00:38:43.825Z,11.02
2018-02-12T00:41:12.211Z,10.50
2018-02-12T00:43:40.580Z,10.23
2018-02-12T00:46:09.284Z,10.32
2018-02-12T00:48:37.651Z,10.15
2018-02-12T00:51:06.019Z,11.18
2018-02-12T00:53:35.168Z,9.93
2018-02-12T00:56:03.534Z,10.48
2018-02-12T00:58:32.204Z,10.40
2018-02-12T01:01:00.563Z,8.30
2018-02-12T01:03:28.924Z,9.32
2018-02-12T01:05:58.086Z,10.88
2018-02-12T01:08:26.571Z,9.35
2018-02-12T01:10:54.975Z,9.93
2018-02-12T01:13:24.100Z,9.90
2018-02-12T01:15:52.458Z,8.55
2018-02-12T01:18:21.600Z,9.52
2018-02-12T01:20:49.968Z,7.50
2018-02-12T01:23:18.365Z,8.80
2018-02-12T01:25:46.731Z,8.50
2018-02-12T01:28:15.089Z,9.43
2018-02-12T01:30:43.466Z,8.07
2018-02-12T01:33:11.826Z,7.10
2018-02-12T01:35:41.026Z,8.50
2018-02-12T01:38:10.148Z,6.68
2018-02-12T01:40:38.509Z,6.03
2018-02-12T01:43:06.901Z,7.65
2018-02-12T01:45:35.264Z,6.93
2018-02-12T01:48:03.856Z,7.22
2018-02-12T01:50:32.207Z,5.40
2018-02-12T01:53:01.329Z,7.45
2018-02-12T01:55:29.713Z,7.45
2018-02-12T01:57:58.073Z,7.35
2018-02-12T02:00:26.488Z,6.97
2018-02-12T02:02:54.862Z,7.50
2018-02-12T02:05:23.221Z,5.95
2018-02-12T02:07:51.608Z,5.85
2018-02-12T02:10:19.968Z,6.47
2018-02-12T02:12:48.564Z,5.97
2018-02-12T02:15:16.915Z,6.07
2018-02-12T02:17:46.037Z,5.53
2018-02-12T02:20:14.416Z,5.97
2018-02-12T02:22:42.779Z,4.53
2018-02-12T02:25:11.179Z,6.05
2018-02-12T02:27:39.540Z,6.82
2018-02-12T02:30:07.908Z,6.37
2018-02-12T02:32:37.053Z,5.75
2018-02-12T02:35:05.408Z,6.10
2018-02-12T02:37:33.993Z,5.12
2018-02-12T02:40:02.351Z,6.60
2018-02-12T02:42:30.710Z,6.20
2018-02-12T02:45:00.529Z,6.32
2018-02-12T02:47:28.891Z,6.93
2018-02-12T02:49:57.420Z,7.62
2018-02-12T02:52:25.784Z,6.12
2018-02-12T02:54:54.154Z,6.75
2018-02-12T02:57:22.531Z,7.32
2018-02-12T02:59:50.914Z,6.97
2018-02-12T03:02:19.340Z,7.10
2018-02-12T03:04:47.758Z,7.25
2018-02-12T03:07:16.888Z,7.22
2018-02-12T03:09:45.276Z,7.35
2018-02-12T03:12:13.632Z,7.40
2018-02-12T03:14:42.228Z,6.50
2018-02-12T03:17:10.593Z,7.28
2018-02-12T03:19:38.944Z,7.40
2018-02-12T03:22:08.093Z,6.97
2018-02-12T03:24:36.457Z,7.70
2018-02-12T03:27:05.040Z,7.12
2018-02-12T03:29:33.393Z,6.95
2018-02-12T03:32:01.757Z,6.93
2018-02-12T03:34:30.904Z,7.28
2018-02-12T03:36:59.265Z,6.50
2018-02-12T03:39:27.640Z,6.50
2018-02-12T03:41:56.021Z,7.07
2018-02-12T03:44:24.371Z,5.95
2018-02-12T03:46:53.516Z,5.97
2018-02-12T03:49:21.881Z,6.10
2018-02-12T03:51:50.284Z,6.15
2018-02-12T03:54:18.640Z,5.62
2018-02-12T03:56:47.006Z,6.03
2018-02-12T03:59:15.414Z,5.75
2018-02-12T04:01:43.781Z,5.37
2018-02-12T04:04:12.453Z,5.95
2018-02-12T04:06:40.830Z,5.75
2018-02-12T04:09:09.184Z,5.50
2018-02-12T04:11:38.335Z,5.28
2018-02-12T04:14:06.686Z,5.10
2018-02-12T04:16:35.588Z,4.75
2018-02-12T04:19:03.950Z,5.40
2018-02-12T04:21:32.304Z,5.22
2018-02-12T04:24:01.456Z,4.32
2018-02-12T04:26:29.815Z,5.18
2018-02-12T04:28:58.230Z,4.55
2018-02-12T04:31:28.101Z,4.47
2018-02-12T04:33:56.469Z,4.47
2018-02-12T04:36:24.860Z,4.78
2018-02-12T04:38:53.224Z,4.43
2018-02-12T04:41:21.817Z,5.15
2018-02-12T04:43:50.174Z,4.72
2018-02-12T04:46:18.544Z,4.10
2018-02-12T04:48:47.697Z,4.40
2018-02-12T04:51:16.057Z,5.25
2018-02-12T04:53:44.624Z,4.20
2018-02-12T04:56:12.984Z,4.43
2018-02-12T04:58:42.104Z,3.90
2018-02-12T05:01:10.487Z,4.00
2018-02-12T05:03:38.843Z,4.97
2018-02-12T05:06:07.442Z,4.45
2018-02-12T05:08:35.809Z,3.58
2018-02-12T05:11:04.183Z,4.30
2018-02-12T05:13:32.569Z,3.70
2018-02-12T05:16:00.944Z,4.12
2018-02-12T05:18:29.549Z,5.00
2018-02-12T05:20:58.081Z,4.87
2018-02-12T05:23:27.205Z,4.53
2018-02-12T05:25:55.585Z,4.78
2018-02-12T05:28:23.949Z,4.70
2018-02-12T05:30:53.389Z,5.65
2018-02-12T05:33:21.744Z,5.75
2018-02-12T05:35:50.110Z,6.35
2018-02-12T05:38:19.260Z,5.78
2018-02-12T05:40:49.330Z,5.45
2018-02-12T05:43:17.768Z,6.68
2018-02-12T05:45:51.881Z,6.28
2018-02-12T05:48:20.632Z,5.75
2018-02-12T05:50:48.984Z,4.07
2018-02-12T05:53:17.345Z,4.90
2018-02-12T05:55:46.552Z,4.43
2018-02-12T05:58:15.676Z,4.55
2018-02-12T06:00:44.359Z,5.20
2018-02-12T06:03:12.716Z,4.28
2018-02-12T06:05:41.845Z,3.55
2018-02-12T06:08:10.262Z,4.43
2018-02-12T06:10:38.617Z,4.30
2018-02-12T06:13:07.108Z,4.80
2018-02-12T06:15:35.463Z,3.55
2018-02-12T06:18:03.832Z,3.55
2018-02-12T06:20:32.232Z,3.12
2018-02-12T06:23:00.588Z,2.72
2018-02-12T06:25:30.762Z,3.83
2018-02-12T06:27:59.136Z,3.20
2018-02-12T06:30:27.494Z,2.97
2018-02-12T06:32:55.888Z,4.30
2018-02-12T06:35:24.249Z,3.15
2018-02-12T06:37:54.000Z,3.33
2018-02-12T06:40:22.718Z,2.70
2018-02-12T06:42:51.113Z,2.85
2018-02-12T06:45:19.507Z,2.92
2018-02-12T06:47:47.880Z,2.70
2018-02-12T06:50:16.287Z,2.25
2018-02-12T06:52:44.722Z,2.85
2018-02-12T06:55:13.130Z,3.40
2018-02-12T06:57:41.520Z,2.92
2018-02-12T07:00:09.880Z,2.55
2018-02-12T07:02:38.272Z,3.40
2018-02-12T07:05:06.651Z,3.72
2018-02-12T07:07:35.072Z,2.97
2018-02-12T07:10:03.473Z,2.62
2018-02-12T07:12:31.852Z,3.30
2018-02-12T07:15:07.571Z,2.90
2018-02-12T07:17:35.946Z,3.05
2018-02-12T07:20:04.326Z,3.40
2018-02-12T07:22:32.705Z,3.67
2018-02-12T07:25:01.104Z,3.00
2018-02-12T07:27:29.681Z,3.75
2018-02-12T07:29:58.052Z,2.92
2018-02-12T07:32:26.408Z,2.58
2018-02-12T07:34:55.555Z,3.10
2018-02-12T07:37:23.928Z,2.90
2018-02-12T07:39:52.342Z,3.05
2018-02-12T07:42:20.724Z,3.05
2018-02-12T07:44:49.094Z,3.05
2018-02-12T07:47:17.486Z,3.35
2018-02-12T07:49:45.855Z,3.35
2018-02-12T07:52:14.705Z,3.10
2018-02-12T07:54:43.079Z,3.92
2018-02-12T07:57:12.251Z,3.55
2018-02-12T07:59:40.632Z,3.17
2018-02-12T08:02:08.996Z,2.67
2018-02-12T08:04:38.332Z,4.10
2018-02-12T08:07:06.692Z,3.55
2018-02-12T08:09:35.055Z,2.95
2018-02-12T08:12:04.207Z,2.87
2018-02-12T08:14:32.584Z,2.78
2018-02-12T08:17:01.119Z,2.17
2018-02-12T08:19:30.243Z,2.80
2018-02-12T08:21:58.597Z,2.50
2018-02-12T08:24:26.981Z,2.65
2018-02-12T08:26:55.350Z,2.67
2018-02-12T08:29:23.910Z,2.20
2018-02-12T08:31:52.269Z,2.42
2018-02-12T08:34:20.636Z,2.70
2018-02-12T08:36:49.016Z,3.10
2018-02-12T08:39:17.381Z,2.08
2018-02-12T08:41:45.953Z,3.08
2018-02-12T08:44:14.313Z,2.87
2018-02-12T08:46:42.678Z,2.05
2018-02-12T08:49:11.109Z,2.80
2018-02-12T08:51:39.485Z,1.83
2018-02-12T08:54:08.152Z,2.20
2018-02-12T08:56:36.516Z,2.25
2018-02-12T08:59:04.893Z,2.40
2018-02-12T09:01:33.305Z,2.05
2018-02-12T09:04:01.707Z,2.20
2018-02-12T09:06:30.105Z,2.83
2018-02-12T09:08:59.245Z,2.17
2018-02-12T09:11:27.936Z,2.60
2018-02-12T09:13:56.334Z,2.23
2018-02-12T09:16:24.723Z,2.13
2018-02-12T09:18:53.122Z,1.80
2018-02-12T09:21:22.254Z,2.13
2018-02-12T09:23:50.653Z,2.40
2018-02-12T09:26:19.024Z,2.30
2018-02-12T09:28:47.455Z,1.70
2018-02-12T09:31:16.682Z,2.50
2018-02-12T09:33:45.053Z,2.40
2018-02-12T09:36:13.441Z,1.90
2018-02-12T09:38:41.816Z,2.08
2018-02-12T09:41:10.206Z,2.28
2018-02-12T09:43:38.589Z,2.10
2018-02-12T09:46:06.991Z,2.30
2018-02-12T09:48:35.357Z,1.60
2018-02-12T09:51:03.735Z,1.40
2018-02-12T09:53:32.116Z,2.03
2018-02-12T09:56:00.492Z,1.50
2018-02-12T09:58:28.941Z,1.73
2018-02-12T10:00:57.348Z,1.73
2018-02-12T10:03:25.993Z,1.50
2018-02-12T10:05:55.116Z,2.28
2018-02-12T10:08:23.490Z,1.10
2018-02-12T10:10:51.888Z,1.40
2018-02-12T10:13:20.252Z,1.83
2018-02-12T10:15:48.634Z,1.50
2018-02-12T10:18:17.055Z,1.25
2018-02-12T10:20:45.561Z,1.60
2018-02-12T10:23:14.698Z,1.52
2018-02-12T10:25:43.061Z,1.73
2018-02-12T10:28:11.453Z,2.47
2018-02-12T10:30:39.824Z,1.45
2018-02-12T10:33:08.224Z,1.50
2018-02-12T10:35:36.594Z,1.60
2018-02-12T10:38:05.261Z,1.25
2018-02-12T10:40:33.628Z,1.20
2018-02-12T10:43:02.004Z,1.60
2018-02-12T10:45:30.404Z,1.60
2018-02-12T10:47:58.777Z,2.05
2018-02-12T10:50:27.172Z,1.98
2018-02-12T10:52:55.543Z,1.85
2018-02-12T10:55:24.117Z,2.90
2018-02-12T10:57:52.506Z,3.30
2018-02-12T11:00:21.225Z,1.40
2018-02-12T11:02:49.687Z,2.00
2018-02-12T11:05:18.045Z,1.40
2018-02-12T11:07:46.431Z,1.45
2018-02-12T11:10:14.784Z,1.70
2018-02-12T11:12:43.269Z,1.17
2018-02-12T11:15:11.644Z,1.33
2018-02-12T11:17:40.020Z,1.65
2018-02-12T11:20:09.203Z,1.65
2018-02-12T11:22:38.336Z,1.40
2018-02-12T11:25:06.716Z,1.70
2018-02-12T11:27:35.094Z,2.03
2018-02-12T11:30:03.501Z,1.40
2018-02-12T11:32:31.888Z,1.42
2018-02-12T11:35:00.255Z,1.70
2018-02-12T11:37:28.650Z,1.70
2018-02-12T11:39:57.019Z,1.42
2018-02-12T11:42:25.417Z,1.92
2018-02-12T11:44:54.622Z,1.23
2018-02-12T11:47:23.957Z,1.40
2018-02-12T11:49:52.325Z,1.50
2018-02-12T11:52:20.700Z,1.70
2018-02-12T11:54:49.099Z,2.10
2018-02-12T11:57:17.468Z,1.25
2018-02-12T11:59:45.863Z,1.80
2018-02-12T12:02:14.225Z,2.00
2018-02-12T12:04:42.816Z,1.85
2018-02-12T12:07:11.175Z,1.95
2018-02-12T12:09:39.536Z,1.37
2018-02-12T12:12:08.728Z,1.45
2018-02-12T12:14:37.869Z,1.37
2018-02-12T12:17:06.262Z,1.80
2018-02-12T12:19:34.633Z,1.87
2018-02-12T12:22:03.298Z,2.30
2018-02-12T12:24:31.674Z,1.62
2018-02-12T12:27:00.129Z,1.40
2018-02-12T12:29:29.274Z,1.17
2018-02-12T12:31:57.656Z,0.95
2018-02-12T12:34:26.074Z,0.85
2018-02-12T12:36:55.253Z,1.02
2018-02-12T12:39:23.892Z,1.30
2018-02-12T12:41:52.260Z,1.25
2018-02-12T12:44:20.614Z,1.23
2018-02-12T12:46:49.768Z,1.25
2018-02-12T12:49:18.142Z,0.75
2018-02-12T12:51:46.604Z,0.90
2018-02-12T12:54:14.972Z,1.12
2018-02-12T12:56:43.388Z,1.17
2018-02-12T12:59:11.761Z,2.08
2018-02-12T13:01:40.151Z,1.50
2018-02-12T13:04:08.545Z,1.45
2018-02-12T13:06:37.667Z,1.87
2018-02-12T13:09:06.945Z,1.10
2018-02-12T13:11:36.097Z,1.00
2018-02-12T13:14:04.525Z,1.10
2018-02-12T13:16:33.676Z,1.52
2018-02-12T13:19:02.054Z,1.00
2018-02-12T13:21:30.476Z,1.23
2018-02-12T13:23:59.631Z,1.50
2018-02-12T13:26:28.034Z,1.92
2018-02-12T13:28:56.417Z,1.73
2018-02-12T13:31:24.838Z,1.07
2018-02-12T13:33:53.221Z,1.10
2018-02-12T13:36:21.585Z,1.27
2018-02-12T13:38:49.981Z,1.40
2018-02-12T13:41:18.345Z,1.47
2018-02-12T13:43:46.740Z,1.27
2018-02-12T13:46:15.113Z,1.60
2018-02-12T13:48:43.625Z,1.00
2018-02-12T13:51:12.004Z,1.33
2018-02-12T13:53:40.582Z,1.40
2018-02-12T13:56:08.990Z,1.50
2018-02-12T13:58:37.357Z,1.45
2018-02-12T14:01:05.756Z,1.60
2018-02-12T14:03:34.247Z,1.20
2018-02-12T14:06:03.581Z,1.70
2018-02-12T14:08:31.955Z,1.30
2018-02-12T14:11:00.325Z,1.98
2018-02-12T14:13:28.714Z,1.50
2018-02-12T14:15:57.081Z,1.40
2018-02-12T14:18:25.468Z,1.65
2018-02-12T14:20:53.825Z,1.80
2018-02-12T14:23:23.082Z,1.77
2018-02-12T14:25:51.457Z,1.33
2018-02-12T14:28:19.821Z,1.60
2018-02-12T14:30:48.214Z,2.45
2018-02-12T14:33:16.651Z,1.75
2018-02-12T14:35:45.061Z,2.05
2018-02-12T14:38:13.455Z,1.40
2018-02-12T14:40:42.041Z,1.77
2018-02-12T14:43:10.930Z,1.40
2018-02-12T14:45:39.308Z,2.03
2018-02-12T14:48:07.875Z,1.73
2018-02-12T14:50:36.242Z,1.60
2018-02-12T14:53:04.702Z,1.30
2018-02-12T14:55:33.068Z,1.55
2018-02-12T14:58:02.432Z,1.17
2018-02-12T15:00:30.816Z,1.33
2018-02-12T15:03:00.679Z,2.65
2018-02-12T15:05:29.073Z,1.50
2018-02-12T15:07:57.436Z,1.70
2018-02-12T15:10:26.331Z,1.90
2018-02-12T15:12:54.710Z,2.10
2018-02-12T15:15:23.252Z,1.42
2018-02-12T15:17:51.771Z,1.30
2018-02-12T15:20:20.124Z,2.33
2018-02-12T15:22:49.313Z,1.50
2018-02-12T15:25:18.516Z,1.70
2018-02-12T15:27:47.664Z,1.30
2018-02-12T15:30:16.033Z,1.48
2018-02-12T15:32:44.605Z,1.70
2018-02-12T15:35:13.901Z,1.33
2018-02-12T15:37:42.336Z,1.10
2018-02-12T15:40:11.501Z,1.92
2018-02-12T15:42:39.858Z,1.50
2018-02-12T15:45:08.245Z,2.10
2018-02-12T15:47:36.733Z,1.08
2018-02-12T15:50:05.175Z,1.60
2018-02-12T15:52:34.473Z,1.60
2018-02-12T15:55:03.643Z,1.45
2018-02-12T15:57:32.172Z,1.15
2018-02-12T16:00:00.853Z,1.90
2018-02-12T16:02:29.292Z,1.35
2018-02-12T16:04:57.839Z,1.00
2018-02-12T16:07:26.261Z,1.83
2018-02-12T16:09:54.656Z,1.48
2018-02-12T16:12:24.010Z,1.80
2018-02-12T16:14:52.386Z,1.40
2018-02-12T16:17:20.747Z,2.10
2018-02-12T16:19:49.129Z,1.70
2018-02-12T16:22:17.510Z,1.77
2018-02-12T16:24:45.893Z,1.75
2018-02-12T16:27:14.284Z,2.40
2018-02-12T16:29:42.704Z,2.75
2018-02-12T16:32:11.828Z,2.17
2018-02-12T16:34:40.221Z,1.73
2018-02-12T16:37:08.609Z,1.87
2018-02-12T16:39:37.359Z,2.58
2018-02-12T16:42:05.948Z,2.33
2018-02-12T16:44:34.340Z,2.70
2018-02-12T16:47:02.929Z,1.80
2018-02-12T16:49:31.289Z,1.90
2018-02-12T16:51:59.715Z,2.35
2018-02-12T16:54:28.101Z,2.60
2018-02-12T16:56:57.228Z,2.85
2018-02-12T16:59:25.609Z,2.80
2018-02-12T17:01:54.745Z,2.35
2018-02-12T17:04:23.317Z,4.05
2018-02-12T17:06:52.404Z,3.72
2018-02-12T17:09:21.007Z,4.53
2018-02-12T17:11:49.821Z,14.85
2018-02-12T17:14:19.194Z,16.50
2018-02-12T17:16:48.078Z,7.32
2018-02-12T17:19:16.497Z,7.75
2018-02-12T17:21:44.890Z,4.00
2018-02-12T17:24:14.224Z,4.25
2018-02-12T17:26:42.629Z,3.10
2018-02-12T17:29:11.527Z,3.05
2018-02-12T17:31:40.124Z,2.50
2018-02-12T17:34:08.879Z,2.08
2018-02-12T17:36:37.260Z,2.62
2018-02-12T17:39:05.873Z,1.52
2018-02-12T17:41:34.713Z,2.35
2018-02-12T17:44:03.064Z,2.33
2018-02-12T17:46:32.233Z,2.60
2018-02-12T17:49:00.598Z,2.50
2018-02-12T17:51:28.977Z,2.53
2018-02-12T17:53:57.369Z,1.65
2018-02-12T17:56:27.258Z,1.67
2018-02-12T17:58:55.625Z,2.62
2018-02-12T18:01:23.988Z,2.33
2018-02-12T18:03:52.903Z,1.60
2018-02-12T18:06:21.485Z,1.77
2018-02-12T18:08:49.999Z,2.00
2018-02-12T18:11:18.388Z,2.12
2018-02-12T18:13:47.532Z,2.03
2018-02-12T18:16:15.920Z,2.30
2018-02-12T18:18:44.277Z,2.53
2018-02-12T18:21:12.809Z,1.92
2018-02-12T18:23:41.254Z,2.37
2018-02-12T18:26:09.720Z,2.15
2018-02-12T18:28:38.137Z,2.20
2018-02-12T18:31:06.817Z,2.67
2018-02-12T18:33:35.285Z,2.97
2018-02-12T18:36:03.703Z,2.62
2018-02-12T18:38:32.085Z,2.90
2018-02-12T18:41:00.458Z,1.77
2018-02-12T18:43:30.494Z,2.40
2018-02-12T18:45:59.629Z,3.30
2018-02-12T18:48:28.233Z,2.55
2018-02-12T18:50:56.697Z,2.85
2018-02-12T18:53:25.118Z,3.03
2018-02-12T18:55:54.281Z,2.50
2018-02-12T18:58:22.660Z,2.80
2018-02-12T19:00:51.066Z,2.50
2018-02-12T19:03:19.445Z,2.70
2018-02-12T19:05:48.745Z,2.92
2018-02-12T19:08:18.632Z,2.60
2018-02-12T19:10:46.992Z,2.70
2018-02-12T19:13:15.469Z,2.45
2018-02-12T19:15:43.838Z,2.85
2018-02-12T19:18:12.620Z,2.78
2018-02-12T19:20:41.000Z,2.45
2018-02-12T19:23:09.641Z,2.60
2018-02-12T19:25:38.003Z,3.00
2018-02-12T19:28:06.373Z,2.65
2018-02-12T19:30:35.036Z,2.62
2018-02-12T19:33:03.474Z,3.00
2018-02-12T19:35:32.220Z,2.43
2018-02-12T19:38:00.613Z,1.95
2018-02-12T19:40:29.270Z,2.40
2018-02-12T19:42:57.710Z,3.33
2018-02-12T19:45:26.841Z,2.37
2018-02-12T19:47:57.739Z,2.58
2018-02-12T19:50:27.045Z,1.75
2018-02-12T19:52:56.668Z,2.40
2018-02-12T19:55:26.370Z,2.30
2018-02-12T19:57:55.705Z,2.60
2018-02-12T20:00:24.171Z,2.90
2018-02-12T20:02:53.155Z,3.55
2018-02-12T20:05:21.954Z,2.80
2018-02-12T20:07:50.459Z,2.78
2018-02-12T20:10:19.801Z,3.15
2018-02-12T20:12:50.956Z,3.25
2018-02-12T20:15:20.114Z,2.12
2018-02-12T20:17:48.541Z,2.90
2018-02-12T20:20:17.768Z,1.95
2018-02-12T20:22:46.214Z,1.85
2018-02-12T20:25:15.991Z,3.42
2018-02-12T20:27:44.850Z,7.78
2018-02-12T20:30:13.249Z,2.65
2018-02-12T20:32:42.273Z,1.62
2018-02-12T20:35:10.701Z,1.30
2018-02-12T20:37:39.285Z,1.98
2018-02-12T20:40:08.647Z,2.08
2018-02-12T20:42:37.970Z,3.28
2018-02-12T20:45:08.538Z,1.90
2018-02-12T20:47:37.617Z,1.50
2018-02-12T20:50:06.603Z,2.00
2018-02-12T20:52:35.300Z,2.30
2018-02-12T20:55:04.007Z,2.65
2018-02-12T20:57:32.429Z,1.90
2018-02-12T21:00:01.147Z,3.35
2018-02-12T21:02:30.524Z,2.97
2018-02-12T21:05:00.741Z,3.20
2018-02-12T21:07:30.067Z,2.40
2018-02-12T21:09:59.316Z,2.17
2018-02-12T21:12:28.510Z,3.10
2018-02-12T21:14:57.689Z,2.37
2018-02-12T21:17:27.066Z,2.10
2018-02-12T21:19:57.486Z,2.47
2018-02-12T21:22:25.871Z,2.35
2018-02-12T21:24:54.756Z,3.30
2018-02-12T21:27:24.832Z,3.08
2018-02-12T21:29:54.868Z,4.43
2018-02-12T21:32:23.703Z,3.70
2018-02-12T21:34:53.301Z,3.70
2018-02-12T21:37:23.939Z,3.70
2018-02-12T21:39:53.638Z,3.62
2018-02-12T21:42:23.054Z,5.10
2018-02-12T21:44:52.832Z,3.47
2018-02-12T21:47:21.988Z,4.87
2018-02-12T21:49:51.038Z,4.22
2018-02-12T21:52:20.926Z,4.68
2018-02-12T21:54:49.444Z,4.30
2018-02-12T21:57:18.257Z,4.30
2018-02-12T21:59:47.037Z,4.80
2018-02-12T22:02:15.738Z,4.20
2018-02-12T22:04:45.304Z,3.60
2018-02-12T22:07:14.009Z,3.83
2018-02-12T22:09:43.267Z,4.05
2018-02-12T22:12:12.617Z,4.45
2018-02-12T22:14:42.527Z,4.30
2018-02-12T22:17:11.037Z,3.60
2018-02-12T22:19:40.348Z,5.65
2018-02-12T22:22:08.934Z,4.62
2018-02-12T22:24:37.395Z,5.28
2018-02-12T22:27:07.074Z,4.90
2018-02-12T22:29:35.812Z,4.53
2018-02-12T22:32:04.569Z,4.35
2018-02-12T22:34:32.983Z,5.45
2018-02-12T22:37:01.377Z,5.32
2018-02-12T22:39:30.674Z,4.75
2018-02-12T22:41:59.033Z,4.07
2018-02-12T22:44:27.415Z,4.30
2018-02-12T22:46:55.849Z,5.12
2018-02-12T22:49:24.213Z,3.95
2018-02-12T22:51:52.578Z,4.35
2018-02-12T22:54:20.997Z,4.25
2018-02-12T22:56:50.138Z,4.60
2018-02-12T22:59:18.633Z,4.07
2018-02-12T23:01:47.053Z,4.55
2018-02-12T23:04:15.448Z,5.20
2018-02-12T23:06:44.588Z,5.35
2018-02-12T23:09:12.992Z,5.57
2018-02-12T23:11:42.142Z,4.55
2018-02-12T23:14:10.609Z,4.90
2018-02-12T23:16:51.463Z,5.25
2018-02-12T23:19:22.139Z,5.50
2018-02-12T23:21:51.356Z,7.07
2018-02-12T23:24:19.722Z,7.18
2018-02-12T23:26:48.089Z,6.93
2018-02-12T23:29:16.477Z,5.53
2018-02-12T23:31:44.837Z,6.70
2018-02-12T23:34:13.188Z,6.60
2018-02-12T23:36:42.629Z,5.95
2018-02-12T23:39:11.004Z,6.85
2018-02-12T23:41:39.604Z,6.15
2018-02-12T23:44:08.005Z,6.40
2018-02-12T23:46:36.508Z,7.28
2018-02-12T23:49:09.919Z,7.43
2018-02-12T23:51:38.848Z,7.68
2018-02-12T23:54:07.212Z,7.22
2018-02-12T23:56:35.564Z,7.40
2018-02-12T23:59:04.736Z,7.62
